createdAt,value
2018-08-30T00:02:02.572Z,16.10
2018-08-30T00:04:31.744Z,16.10
2018-08-30T00:07:01.008Z,16.10
2018-08-30T00:09:30.251Z,16.10
2018-08-30T00:11:59.425Z,16.20
2018-08-30T00:14:28.716Z,16.20
2018-08-30T00:16:57.919Z,16.10
2018-08-30T00:19:27.282Z,16.10
2018-08-30T00:21:56.628Z,16.10
2018-08-30T00:24:25.843Z,16.00
2018-08-30T00:26:55.145Z,16.00
2018-08-30T00:29:24.323Z,16.00
2018-08-30T00:31:53.541Z,16.00
2018-08-30T00:34:22.742Z,16.00
2018-08-30T00:36:51.923Z,16.00
2018-08-30T00:39:21.456Z,16.00
2018-08-30T00:41:51.451Z,16.00
2018-08-30T00:44:20.722Z,16.00
2018-08-30T00:46:49.992Z,16.10
2018-08-30T00:49:19.334Z,16.10
2018-08-30T00:51:48.587Z,16.10
2018-08-30T00:54:17.862Z,16.00
2018-08-30T00:56:47.152Z,16.00
2018-08-30T00:59:16.291Z,16.00
2018-08-30T01:01:45.599Z,16.00
2018-08-30T01:04:14.741Z,16.00
2018-08-30T01:06:43.978Z,16.00
2018-08-30T01:09:13.349Z,16.00
2018-08-30T01:11:42.532Z,15.90
2018-08-30T01:14:11.652Z,15.90
2018-08-30T01:16:40.948Z,15.90
2018-08-30T01:19:10.451Z,15.90
2018-08-30T01:21:39.658Z,15.80
2018-08-30T01:24:08.952Z,15.70
2018-08-30T01:26:38.202Z,15.70
2018-08-30T01:29:07.904Z,15.60
2018-08-30T01:31:37.289Z,15.60
2018-08-30T01:34:06.797Z,15.50
2018-08-30T01:36:35.964Z,15.50
2018-08-30T01:39:06.339Z,15.40
2018-08-30T01:41:36.206Z,15.50
2018-08-30T01:44:05.395Z,15.50
2018-08-30T01:46:34.576Z,15.50
2018-08-30T01:49:04.313Z,15.50
2018-08-30T01:51:33.727Z,15.50
2018-08-30T01:54:02.989Z,15.50
2018-08-30T01:56:32.370Z,15.60
2018-08-30T01:59:01.634Z,15.60
2018-08-30T02:01:31.116Z,15.60
2018-08-30T02:04:00.337Z,15.50
2018-08-30T02:06:30.458Z,15.50
2018-08-30T02:08:59.815Z,15.50
2018-08-30T02:11:29.025Z,15.60
2018-08-30T02:13:58.259Z,15.60
2018-08-30T02:16:27.663Z,15.60
2018-08-30T02:18:57.223Z,15.60
2018-08-30T02:21:26.430Z,15.60
2018-08-30T02:23:55.752Z,15.60
2018-08-30T02:26:25.016Z,15.60
2018-08-30T02:28:54.254Z,15.60
2018-08-30T02:31:23.445Z,15.60
2018-08-30T02:33:52.659Z,15.60
2018-08-30T02:36:21.932Z,15.60
2018-08-30T02:38:51.173Z,15.60
2018-08-30T02:41:20.982Z,15.60
2018-08-30T02:43:50.161Z,15.60
2018-08-30T02:46:19.753Z,15.60
2018-08-30T02:48:49.161Z,15.70
2018-08-30T02:51:18.375Z,15.70
2018-08-30T02:53:47.674Z,15.80
2018-08-30T02:56:16.843Z,15.90
2018-08-30T02:58:46.085Z,15.90
2018-08-30T03:01:15.491Z,16.00
2018-08-30T03:03:44.868Z,16.10
2018-08-30T03:06:14.097Z,16.10
2018-08-30T03:08:43.541Z,16.10
2018-08-30T03:11:12.716Z,16.20
2018-08-30T03:13:41.970Z,16.20
2018-08-30T03:16:11.295Z,16.20
2018-08-30T03:18:40.581Z,16.10
2018-08-30T03:21:09.874Z,16.10
2018-08-30T03:23:39.200Z,16.10
2018-08-30T03:26:08.473Z,16.10
2018-08-30T03:28:37.887Z,16.00
2018-08-30T03:31:07.145Z,16.00
2018-08-30T03:33:36.277Z,16.00
2018-08-30T03:36:05.589Z,16.00
2018-08-30T03:38:34.812Z,16.00
2018-08-30T03:41:04.149Z,16.00
2018-08-30T03:43:33.478Z,16.00
2018-08-30T03:46:02.860Z,15.90
2018-08-30T03:48:32.205Z,15.80
2018-08-30T03:51:01.404Z,15.80
2018-08-30T03:53:30.605Z,15.80
2018-08-30T03:55:59.890Z,15.80
2018-08-30T03:58:29.664Z,15.80
2018-08-30T04:00:59.896Z,15.80
2018-08-30T04:03:29.241Z,15.80
2018-08-30T04:05:59.051Z,15.80
2018-08-30T04:08:28.245Z,15.80
2018-08-30T04:10:57.529Z,15.70
2018-08-30T04:13:26.870Z,15.70
2018-08-30T04:15:56.057Z,15.60
2018-08-30T04:18:25.493Z,15.60
2018-08-30T04:20:54.761Z,15.60
2018-08-30T04:23:24.162Z,15.50
2018-08-30T04:25:53.500Z,15.50
2018-08-30T04:28:22.664Z,15.50
2018-08-30T04:30:52.052Z,15.50
2018-08-30T04:33:21.358Z,15.50
2018-08-30T04:35:50.685Z,15.50
2018-08-30T04:38:20.569Z,15.50
2018-08-30T04:40:49.879Z,15.50
2018-08-30T04:43:19.052Z,15.50
2018-08-30T04:45:48.239Z,15.50
2018-08-30T04:48:17.443Z,15.50
2018-08-30T04:50:46.551Z,15.40
2018-08-30T04:53:15.824Z,15.30
2018-08-30T04:55:45.115Z,15.30
2018-08-30T04:58:14.337Z,15.30
2018-08-30T05:00:43.613Z,15.40
2018-08-30T05:03:12.832Z,15.40
2018-08-30T05:05:42.079Z,15.50
2018-08-30T05:08:11.363Z,15.50
2018-08-30T05:10:40.496Z,15.50
2018-08-30T05:13:09.752Z,15.50
2018-08-30T05:15:38.958Z,15.60
2018-08-30T05:18:08.248Z,15.70
2018-08-30T05:20:37.759Z,15.70
2018-08-30T05:23:07.212Z,15.80
2018-08-30T05:25:36.672Z,15.90
2018-08-30T05:28:06.196Z,16.00
2018-08-30T05:30:35.603Z,16.00
2018-08-30T05:33:05.217Z,16.10
2018-08-30T05:35:34.436Z,16.10
2018-08-30T05:38:03.553Z,16.10
2018-08-30T05:40:32.805Z,16.20
2018-08-30T05:43:01.937Z,16.20
2018-08-30T05:45:31.266Z,16.30
2018-08-30T05:48:00.483Z,16.30
2018-08-30T05:50:29.841Z,16.40
2018-08-30T05:52:58.980Z,16.50
2018-08-30T05:55:28.497Z,16.80
2018-08-30T05:57:57.705Z,17.00
2018-08-30T06:00:26.834Z,17.30
2018-08-30T06:02:55.944Z,17.40
2018-08-30T06:05:25.176Z,17.60
2018-08-30T06:07:54.476Z,17.90
2018-08-30T06:10:24.285Z,18.00
2018-08-30T06:12:53.517Z,17.80
2018-08-30T06:15:22.685Z,17.80
2018-08-30T06:17:51.804Z,18.10
2018-08-30T06:20:21.576Z,18.30
2018-08-30T06:22:50.753Z,18.50
2018-08-30T06:25:19.950Z,18.30
2018-08-30T06:27:49.295Z,18.00
2018-08-30T06:30:18.498Z,17.90
2018-08-30T06:32:47.709Z,18.30
2018-08-30T06:35:16.992Z,18.70
2018-08-30T06:37:46.222Z,19.00
2018-08-30T06:40:15.385Z,19.40
2018-08-30T06:42:44.576Z,19.70
2018-08-30T06:45:14.401Z,19.60
2018-08-30T06:47:43.631Z,19.50
2018-08-30T06:50:13.289Z,19.40
2018-08-30T06:52:42.490Z,19.30
2018-08-30T06:55:11.788Z,19.10
2018-08-30T06:57:41.024Z,19.10
2018-08-30T07:00:10.337Z,19.10
2018-08-30T07:02:39.655Z,19.50
2018-08-30T07:05:08.824Z,19.70
2018-08-30T07:07:38.116Z,20.00
2018-08-30T07:10:07.485Z,20.10
2018-08-30T07:12:36.820Z,20.30
2018-08-30T07:15:06.532Z,20.40
2018-08-30T07:17:35.772Z,20.60
2018-08-30T07:20:05.145Z,20.60
2018-08-30T07:22:35.149Z,20.60
2018-08-30T07:25:04.367Z,20.70
2018-08-30T07:27:33.554Z,20.50
2018-08-30T07:30:02.788Z,20.10
2018-08-30T07:32:32.006Z,19.40
2018-08-30T07:35:01.322Z,19.20
2018-08-30T07:37:30.373Z,19.10
2018-08-30T07:40:00.133Z,18.70
2018-08-30T07:42:29.294Z,18.50
2018-08-30T07:44:58.748Z,18.50
2018-08-30T07:47:28.029Z,19.10
2018-08-30T07:49:57.253Z,19.50
2018-08-30T07:52:26.452Z,19.10
2018-08-30T07:54:55.644Z,18.70
2018-08-30T07:57:24.986Z,18.30
2018-08-30T07:59:54.167Z,17.80
2018-08-30T08:02:23.357Z,17.60
2018-08-30T08:04:52.452Z,17.30
2018-08-30T08:07:21.732Z,16.90
2018-08-30T08:09:50.904Z,16.70
2018-08-30T08:12:20.145Z,16.50
2018-08-30T08:14:49.438Z,16.40
2018-08-30T08:17:18.665Z,16.40
2018-08-30T08:19:47.799Z,16.40
2018-08-30T08:22:17.009Z,16.30
2018-08-30T08:24:46.302Z,16.20
2018-08-30T08:27:15.835Z,16.20
2018-08-30T08:29:45.052Z,16.20
2018-08-30T08:32:14.234Z,16.10
2018-08-30T08:34:43.653Z,16.00
2018-08-30T08:37:12.752Z,16.00
2018-08-30T08:39:42.093Z,16.10
2018-08-30T08:42:11.456Z,16.10
2018-08-30T08:44:40.848Z,16.20
2018-08-30T08:47:09.989Z,16.30
2018-08-30T08:49:39.560Z,16.40
2018-08-30T08:52:08.936Z,16.60
2018-08-30T08:54:38.223Z,16.90
2018-08-30T08:57:07.444Z,17.10
2018-08-30T08:59:36.628Z,17.20
2018-08-30T09:02:06.533Z,17.30
2018-08-30T09:04:35.787Z,17.40
2018-08-30T09:07:05.635Z,17.50
2018-08-30T09:09:35.788Z,17.60
2018-08-30T09:12:05.054Z,17.80
2018-08-30T09:14:34.432Z,18.00
2018-08-30T09:17:03.760Z,18.10
2018-08-30T09:19:33.108Z,18.20
2018-08-30T09:22:02.459Z,18.60
2018-08-30T09:24:31.585Z,18.70
2018-08-30T09:27:00.866Z,18.80
2018-08-30T09:29:30.260Z,18.90
2018-08-30T09:31:59.605Z,18.80
2018-08-30T09:34:28.846Z,18.60
2018-08-30T09:36:58.082Z,18.40
2018-08-30T09:39:27.325Z,18.30
2018-08-30T09:41:57.382Z,18.20
2018-08-30T09:44:26.644Z,18.30
2018-08-30T09:46:55.961Z,18.30
2018-08-30T09:49:25.164Z,18.30
2018-08-30T09:51:54.447Z,18.30
2018-08-30T09:54:23.635Z,19.10
2018-08-30T09:56:52.933Z,20.20
2018-08-30T09:59:22.057Z,21.20
2018-08-30T10:01:55.484Z,21.70
2018-08-30T10:04:24.862Z,22.70
2018-08-30T10:06:54.155Z,22.80
2018-08-30T10:09:23.446Z,22.60
2018-08-30T10:11:52.872Z,21.50
2018-08-30T10:14:22.024Z,20.90
2018-08-30T10:16:51.280Z,20.60
2018-08-30T10:19:20.816Z,20.10
2018-08-30T10:21:51.221Z,19.90
2018-08-30T10:24:20.541Z,20.10
2018-08-30T10:26:49.775Z,20.20
2018-08-30T10:29:18.933Z,20.30
2018-08-30T10:31:48.142Z,19.90
2018-08-30T10:34:17.491Z,19.60
2018-08-30T10:36:46.806Z,19.80
2018-08-30T10:39:16.192Z,20.00
2018-08-30T10:41:45.532Z,19.70
2018-08-30T10:44:14.693Z,19.50
2018-08-30T10:46:43.906Z,19.10
2018-08-30T10:49:13.834Z,19.10
2018-08-30T10:51:43.112Z,19.30
2018-08-30T10:54:12.281Z,19.60
2018-08-30T10:56:44.444Z,20.20
2018-08-30T10:59:13.781Z,20.80
2018-08-30T11:01:43.193Z,21.50
2018-08-30T11:04:12.403Z,22.10
2018-08-30T11:06:41.833Z,22.40
2018-08-30T11:09:11.093Z,22.80
2018-08-30T11:11:40.470Z,23.10
2018-08-30T11:14:09.878Z,22.80
2018-08-30T11:16:39.176Z,21.80
2018-08-30T11:19:08.502Z,21.10
2018-08-30T11:21:37.810Z,20.50
2018-08-30T11:24:07.393Z,20.70
2018-08-30T11:26:37.371Z,21.00
2018-08-30T11:29:06.605Z,20.90
2018-08-30T11:31:35.903Z,20.80
2018-08-30T11:34:05.202Z,20.50
2018-08-30T11:36:34.420Z,20.60
2018-08-30T11:39:04.533Z,20.90
2018-08-30T11:41:33.832Z,20.70
2018-08-30T11:44:02.928Z,20.90
2018-08-30T11:46:32.801Z,21.10
2018-08-30T11:49:01.993Z,21.00
2018-08-30T11:51:31.325Z,21.30
2018-08-30T11:54:00.651Z,21.40
2018-08-30T11:56:30.110Z,21.60
2018-08-30T11:58:59.445Z,22.20
2018-08-30T12:01:28.633Z,22.30
2018-08-30T12:03:58.448Z,22.30
2018-08-30T12:06:27.978Z,21.90
2018-08-30T12:08:57.293Z,22.40
2018-08-30T12:11:26.511Z,23.10
2018-08-30T12:13:56.680Z,24.60
2018-08-30T12:16:25.946Z,24.10
2018-08-30T12:18:56.163Z,24.10
2018-08-30T12:21:25.303Z,24.20
2018-08-30T12:23:54.503Z,23.70
2018-08-30T12:26:23.669Z,22.80
2018-08-30T12:28:52.931Z,21.40
2018-08-30T12:31:22.684Z,21.10
2018-08-30T12:33:52.017Z,20.90
2018-08-30T12:36:21.493Z,21.00
2018-08-30T12:38:50.695Z,20.90
2018-08-30T12:41:20.092Z,20.60
2018-08-30T12:43:49.176Z,20.20
2018-08-30T12:46:18.469Z,21.00
2018-08-30T12:48:47.634Z,21.50
2018-08-30T12:51:17.138Z,21.00
2018-08-30T12:53:46.191Z,20.40
2018-08-30T12:56:15.368Z,20.50
2018-08-30T12:58:45.074Z,19.80
2018-08-30T13:01:14.225Z,19.60
2018-08-30T13:03:43.442Z,20.50
2018-08-30T13:06:12.849Z,22.00
2018-08-30T13:08:41.929Z,22.60
2018-08-30T13:11:11.356Z,22.80
2018-08-30T13:13:40.531Z,23.70
2018-08-30T13:16:09.875Z,23.90
2018-08-30T13:18:39.118Z,23.70
2018-08-30T13:21:08.404Z,23.80
2018-08-30T13:23:37.667Z,23.80
2018-08-30T13:26:06.760Z,23.60
2018-08-30T13:28:36.160Z,22.80
2018-08-30T13:31:05.292Z,21.70
2018-08-30T13:33:34.570Z,21.20
2018-08-30T13:36:04.221Z,20.60
2018-08-30T13:38:33.743Z,20.00
2018-08-30T13:41:02.839Z,19.80
2018-08-30T13:43:31.978Z,19.70
2018-08-30T13:46:02.036Z,19.60
2018-08-30T13:48:31.277Z,19.50
2018-08-30T13:51:00.635Z,19.60
2018-08-30T13:53:29.768Z,20.00
2018-08-30T13:55:59.740Z,20.10
2018-08-30T13:58:29.143Z,20.10
2018-08-30T14:00:58.183Z,20.60
2018-08-30T14:03:27.257Z,21.00
2018-08-30T14:05:56.536Z,21.30
2018-08-30T14:08:26.208Z,22.30
2018-08-30T14:10:55.598Z,22.10
2018-08-30T14:13:24.759Z,21.70
2018-08-30T14:15:53.673Z,21.80
2018-08-30T14:18:22.917Z,22.30
2018-08-30T14:20:52.219Z,22.50
2018-08-30T14:23:21.721Z,22.40
2018-08-30T14:25:51.193Z,21.80
2018-08-30T14:28:20.377Z,22.00
2018-08-30T14:30:49.749Z,22.30
2018-08-30T14:33:19.281Z,22.20
2018-08-30T14:35:48.481Z,22.00
2018-08-30T14:38:17.621Z,22.40
2018-08-30T14:40:47.006Z,22.70
2018-08-30T14:43:16.022Z,23.20
2018-08-30T14:45:46.320Z,23.20
2018-08-30T14:48:15.669Z,22.80
2018-08-30T14:50:44.667Z,22.20
2018-08-30T14:53:13.985Z,21.20
2018-08-30T14:55:43.019Z,20.70
2018-08-30T14:58:12.317Z,21.00
2018-08-30T15:00:41.392Z,21.40
2018-08-30T15:03:10.610Z,20.90
2018-08-30T15:05:40.866Z,20.30
2018-08-30T15:08:10.152Z,20.00
2018-08-30T15:10:39.438Z,19.50
2018-08-30T15:13:08.608Z,18.90
2018-08-30T15:15:38.607Z,18.70
2018-08-30T15:18:07.933Z,18.60
2018-08-30T15:20:37.144Z,18.60
2018-08-30T15:23:06.929Z,18.70
2018-08-30T15:25:36.204Z,18.80
2018-08-30T15:28:06.908Z,19.40
2018-08-30T15:30:36.287Z,20.50
2018-08-30T15:33:05.589Z,20.70
2018-08-30T15:35:34.838Z,20.60
2018-08-30T15:38:04.092Z,20.40
2018-08-30T15:40:33.424Z,20.40
2018-08-30T15:43:02.972Z,21.00
2018-08-30T15:45:32.193Z,21.10
2018-08-30T15:48:01.379Z,21.00
2018-08-30T15:50:30.807Z,21.00
2018-08-30T15:53:00.390Z,21.00
2018-08-30T15:55:30.293Z,20.60
2018-08-30T15:57:59.622Z,20.50
2018-08-30T16:00:28.815Z,20.10
2018-08-30T16:02:57.950Z,19.90
2018-08-30T16:05:27.380Z,19.50
2018-08-30T16:07:56.595Z,19.10
2018-08-30T16:10:25.990Z,18.80
2018-08-30T16:12:55.224Z,18.40
2018-08-30T16:15:24.420Z,18.20
2018-08-30T16:17:53.729Z,18.10
2018-08-30T16:20:22.916Z,18.10
2018-08-30T16:23:07.266Z,18.20
2018-08-30T16:25:36.805Z,18.30
2018-08-30T16:28:06.688Z,18.40
2018-08-30T16:30:35.930Z,18.40
2018-08-30T16:33:05.080Z,18.30
2018-08-30T16:35:34.295Z,18.40
2018-08-30T16:38:03.572Z,18.20
2018-08-30T16:40:32.778Z,18.00
2018-08-30T16:43:01.974Z,17.90
2018-08-30T16:45:31.220Z,17.80
2018-08-30T16:48:00.372Z,17.70
2018-08-30T16:50:29.699Z,17.60
2018-08-30T16:52:59.055Z,17.60
2018-08-30T16:55:28.178Z,17.50
2018-08-30T16:57:58.213Z,17.40
2018-08-30T17:00:27.863Z,17.30
2018-08-30T17:02:57.930Z,17.30
2018-08-30T17:05:27.426Z,17.10
2018-08-30T17:07:56.675Z,17.10
2018-08-30T17:10:26.186Z,17.00
2018-08-30T17:12:55.433Z,17.00
2018-08-30T17:15:24.737Z,16.90
2018-08-30T17:17:54.180Z,16.80
2018-08-30T17:20:27.021Z,16.80
2018-08-30T17:22:56.158Z,16.70
2018-08-30T17:25:25.517Z,16.60
2018-08-30T17:27:54.609Z,16.50
2018-08-30T17:30:24.539Z,16.50
2018-08-30T17:32:53.856Z,16.50
2018-08-30T17:35:23.255Z,16.50
2018-08-30T17:37:52.497Z,16.40
2018-08-30T17:40:22.235Z,16.40
2018-08-30T17:42:52.108Z,16.40
2018-08-30T17:45:21.554Z,16.20
2018-08-30T17:47:50.710Z,16.20
2018-08-30T17:50:19.933Z,16.20
2018-08-30T17:52:49.817Z,16.10
2018-08-30T17:55:19.296Z,16.10
2018-08-30T17:57:50.222Z,16.20
2018-08-30T18:00:19.457Z,16.20
2018-08-30T18:02:48.613Z,16.20
2018-08-30T18:05:17.892Z,16.10
2018-08-30T18:07:47.066Z,16.10
2018-08-30T18:10:16.360Z,16.10
2018-08-30T18:12:45.560Z,16.10
2018-08-30T18:15:15.752Z,16.10
2018-08-30T18:17:45.694Z,16.00
2018-08-30T18:20:15.129Z,16.00
2018-08-30T18:22:44.324Z,15.90
2018-08-30T18:25:13.617Z,15.90
2018-08-30T18:27:42.785Z,15.90
2018-08-30T18:30:12.470Z,15.90
2018-08-30T18:32:41.640Z,15.80
2018-08-30T18:35:11.087Z,15.80
2018-08-30T18:37:40.918Z,15.70
2018-08-30T18:40:10.566Z,15.70
2018-08-30T18:42:40.281Z,15.70
2018-08-30T18:45:09.392Z,15.70
2018-08-30T18:47:38.601Z,15.60
2018-08-30T18:50:07.889Z,15.60
2018-08-30T18:52:37.169Z,15.50
2018-08-30T18:55:06.412Z,15.40
2018-08-30T18:57:35.605Z,15.30
2018-08-30T19:00:04.835Z,15.20
2018-08-30T19:02:34.119Z,15.00
2018-08-30T19:05:03.556Z,14.80
2018-08-30T19:07:32.777Z,14.70
2018-08-30T19:10:02.364Z,14.70
2018-08-30T19:12:31.942Z,14.60
2018-08-30T19:15:05.713Z,14.60
2018-08-30T19:17:40.783Z,14.40
2018-08-30T19:20:10.512Z,14.30
2018-08-30T19:22:40.276Z,14.20
2018-08-30T19:25:14.320Z,14.10
2018-08-30T19:27:45.650Z,14.00
2018-08-30T19:30:20.600Z,13.90
2018-08-30T19:32:50.004Z,13.80
2018-08-30T19:35:25.039Z,13.70
2018-08-30T19:37:54.718Z,13.70
2018-08-30T19:40:29.553Z,13.60
2018-08-30T19:42:59.634Z,13.40
2018-08-30T19:45:29.698Z,13.40
2018-08-30T19:48:00.204Z,13.30
2018-08-30T19:50:30.125Z,13.20
2018-08-30T19:52:59.335Z,13.10
2018-08-30T19:55:28.558Z,13.10
2018-08-30T19:57:58.148Z,13.10
2018-08-30T20:00:27.322Z,13.00
2018-08-30T20:02:56.686Z,13.00
2018-08-30T20:05:25.961Z,13.00
2018-08-30T20:07:55.226Z,13.00
2018-08-30T20:10:24.822Z,13.00
2018-08-30T20:12:54.672Z,13.00
2018-08-30T20:15:24.028Z,13.00
2018-08-30T20:17:53.146Z,13.00
2018-08-30T20:20:22.370Z,13.00
2018-08-30T20:22:51.623Z,12.90
2018-08-30T20:25:20.880Z,12.90
2018-08-30T20:27:50.188Z,12.80
2018-08-30T20:30:19.270Z,12.80
2018-08-30T20:32:48.481Z,12.80
2018-08-30T20:35:17.873Z,12.70
2018-08-30T20:37:47.256Z,12.70
2018-08-30T20:40:16.547Z,12.70
2018-08-30T20:42:45.765Z,12.70
2018-08-30T20:45:14.962Z,12.80
2018-08-30T20:47:44.182Z,12.80
2018-08-30T20:50:13.405Z,12.70
2018-08-30T20:52:42.635Z,12.70
2018-08-30T20:55:11.892Z,12.60
2018-08-30T20:57:41.257Z,12.60
2018-08-30T21:00:10.665Z,12.50
2018-08-30T21:02:39.788Z,12.50
2018-08-30T21:05:09.104Z,12.50
2018-08-30T21:07:38.449Z,12.50
2018-08-30T21:10:07.629Z,12.40
2018-08-30T21:12:36.977Z,12.30
2018-08-30T21:15:07.039Z,12.30
2018-08-30T21:17:36.722Z,12.30
2018-08-30T21:20:06.615Z,12.30
2018-08-30T21:22:35.925Z,12.30
2018-08-30T21:25:05.178Z,12.30
2018-08-30T21:27:34.472Z,12.30
2018-08-30T21:30:03.880Z,12.20
2018-08-30T21:32:33.148Z,12.10
2018-08-30T21:35:02.330Z,12.20
2018-08-30T21:37:31.538Z,12.20
2018-08-30T21:40:01.151Z,12.20
2018-08-30T21:42:31.229Z,12.20
2018-08-30T21:45:00.559Z,12.20
2018-08-30T21:47:29.858Z,12.20
2018-08-30T21:49:59.083Z,12.20
2018-08-30T21:52:28.236Z,12.10
2018-08-30T21:54:57.416Z,12.10
2018-08-30T21:57:26.621Z,12.00
2018-08-30T21:59:55.849Z,12.00
2018-08-30T22:02:25.226Z,11.90
2018-08-30T22:04:54.337Z,11.90
2018-08-30T22:07:23.530Z,11.90
2018-08-30T22:09:52.897Z,11.90
2018-08-30T22:12:22.368Z,11.90
2018-08-30T22:14:51.576Z,11.90
2018-08-30T22:17:20.882Z,11.80
2018-08-30T22:19:50.215Z,11.70
2018-08-30T22:22:19.453Z,11.70
2018-08-30T22:24:48.988Z,11.60
2018-08-30T22:27:18.399Z,11.60
2018-08-30T22:29:47.803Z,11.50
2018-08-30T22:32:17.194Z,11.50
2018-08-30T22:34:46.387Z,11.60
2018-08-30T22:37:15.887Z,11.60
2018-08-30T22:39:45.076Z,11.60
2018-08-30T22:42:14.221Z,11.60
2018-08-30T22:44:43.461Z,11.70
2018-08-30T22:47:12.704Z,11.70
2018-08-30T22:49:42.004Z,11.70
2018-08-30T22:52:11.380Z,11.60
2018-08-30T22:54:40.584Z,11.60
2018-08-30T22:57:09.884Z,11.50
2018-08-30T22:59:39.203Z,11.60
2018-08-30T23:02:09.011Z,11.60
2018-08-30T23:04:38.220Z,11.60
2018-08-30T23:07:07.445Z,11.60
2018-08-30T23:09:36.763Z,11.60
2018-08-30T23:12:06.215Z,11.60
2018-08-30T23:14:36.193Z,11.50
2018-08-30T23:17:05.397Z,11.50
2018-08-30T23:19:34.544Z,11.50
2018-08-30T23:22:03.915Z,11.50
2018-08-30T23:24:33.220Z,11.50
2018-08-30T23:27:02.529Z,11.50
2018-08-30T23:29:31.795Z,11.50
2018-08-30T23:32:01.169Z,11.50
2018-08-30T23:34:30.622Z,11.60
2018-08-30T23:37:00.042Z,11.60
2018-08-30T23:39:29.300Z,11.60
2018-08-30T23:41:58.679Z,11.60
2018-08-30T23:44:27.935Z,11.60
2018-08-30T23:46:57.270Z,11.70
2018-08-30T23:49:26.516Z,11.70
2018-08-30T23:51:55.816Z,11.80
2018-08-30T23:54:25.019Z,11.80
2018-08-30T23:56:54.434Z,11.80
2018-08-30T23:59:34.842Z,11.80
